Time;durP1;ratioP1;P1;durP2;ratioP2;P2;SDS_P1;SDS_P2;PMS_P1;PMS_P2;Temp;Humidity;BMP_temperature;BMP_pressure;BME280_temperature;BME280_humidity;BME280_pressure;Samples;Min_cycle;Max_cycle;Signal;HPM_P1;HPM_P2
2022/07/21 00:00:54;;;;;;;12.33;4.67;;;;;;;22.83;72.54;100965.00;5074970;28;20851;-70
2022/07/21 00:03:21;;;;;;;5.83;4.13;;;;;;;22.78;72.92;100962.56;5075266;28;20437;-69
2022/07/21 00:05:47;;;;;;;5.47;3.50;;;;;;;22.76;73.28;100959.41;5075275;28;20441;-70
2022/07/21 00:08:14;;;;;;;5.00;3.83;;;;;;;22.76;73.90;100969.66;5075130;28;20529;-70
2022/07/21 00:10:42;;;;;;;5.67;4.27;;;;;;;22.73;73.77;100953.81;5074948;28;20501;-70
2022/07/21 00:13:09;;;;;;;6.03;4.20;;;;;;;22.73;74.56;100949.09;5074950;28;20468;-70
2022/07/21 00:15:35;;;;;;;6.40;3.90;;;;;;;22.68;75.06;100943.91;5074908;28;20531;-70
2022/07/21 00:18:02;;;;;;;4.73;3.37;;;;;;;22.62;74.55;100937.09;5074835;28;20889;-69
2022/07/21 00:20:30;;;;;;;4.20;3.80;;;;;;;22.59;73.99;100929.56;5074670;28;20457;-69
2022/07/21 00:22:57;;;;;;;6.33;4.67;;;;;;;22.55;74.28;100925.97;5074308;28;20445;-70
2022/07/21 00:25:23;;;;;;;5.20;4.20;;;;;;;22.49;74.00;100931.03;5074777;28;20473;-70
2022/07/21 00:27:51;;;;;;;9.30;4.60;;;;;;;22.47;73.80;100925.06;5074775;28;20520;-70
2022/07/21 00:30:18;;;;;;;5.70;4.50;;;;;;;22.46;74.31;100922.69;5074470;28;20492;-69
2022/07/21 00:32:45;;;;;;;6.20;3.77;;;;;;;22.44;74.60;100923.03;5074676;28;20845;-69
2022/07/21 00:35:12;;;;;;;4.50;4.10;;;;;;;22.40;74.99;100920.25;5074509;28;20484;-69
2022/07/21 00:37:39;;;;;;;5.60;3.60;;;;;;;22.40;74.64;100923.03;5074162;28;20548;-70
2022/07/21 00:40:08;;;;;;;4.53;3.47;;;;;;;22.39;74.62;100924.16;5074225;28;20738;-70
2022/07/21 00:42:36;;;;;;;4.37;3.60;;;;;;;22.38;73.99;100917.06;5074421;28;20516;-69
2022/07/21 00:45:06;;;;;;;6.93;4.27;;;;;;;22.36;74.30;100913.91;5074418;28;20433;-70
2022/07/21 00:47:32;;;;;;;5.80;3.70;;;;;;;22.33;74.17;100920.16;5074012;28;20484;-69
2022/07/21 00:50:02;;;;;;;6.10;3.80;;;;;;;22.31;74.77;100922.50;5073879;28;20608;-71
2022/07/21 00:52:28;;;;;;;10.43;3.70;;;;;;;22.28;74.27;100923.22;5074076;28;20548;-70
2022/07/21 00:54:55;;;;;;;5.50;3.83;;;;;;;22.27;74.81;100915.31;5074204;28;20531;-70
2022/07/21 00:57:22;;;;;;;8.10;3.90;;;;;;;22.21;74.66;100912.09;5074057;28;20532;-69
2022/07/21 00:59:49;;;;;;;4.60;3.80;;;;;;;22.21;74.07;100912.09;5073660;28;20517;-69
2022/07/21 01:02:17;;;;;;;3.87;3.40;;;;;;;22.19;74.23;100911.66;5074062;28;20439;-70
2022/07/21 01:04:44;;;;;;;4.77;3.37;;;;;;;22.20;74.41;100916.00;5073698;28;20533;-69
2022/07/21 01:07:11;;;;;;;5.20;4.17;;;;;;;22.22;74.38;100916.44;5074007;28;20441;-69
2022/07/21 01:09:37;;;;;;;4.43;4.03;;;;;;;22.19;74.66;100919.94;5073955;28;20528;-70
2022/07/21 01:12:05;;;;;;;7.10;4.03;;;;;;;22.16;74.46;100915.97;5073554;28;20529;-68
2022/07/21 01:14:32;;;;;;;4.90;3.60;;;;;;;22.13;74.27;100922.25;5073518;28;20445;-69
2022/07/21 01:17:01;;;;;;;4.37;3.53;;;;;;;22.12;74.55;100925.34;5073727;28;20520;-69
2022/07/21 01:19:29;;;;;;;6.47;3.97;;;;;;;22.10;74.94;100920.19;5073753;28;20519;-69
2022/07/21 01:21:57;;;;;;;5.53;3.70;;;;;;;22.10;75.47;100911.13;5073622;28;20468;-69
2022/07/21 01:24:24;;;;;;;4.90;3.70;;;;;;;22.11;74.88;100902.44;5073676;28;20477;-67
2022/07/21 01:26:52;;;;;;;4.90;4.17;;;;;;;22.13;74.21;100905.69;5073585;28;20520;-69
2022/07/21 01:29:19;;;;;;;5.50;4.10;;;;;;;22.15;74.61;100903.34;5073597;28;20438;-69
2022/07/21 01:31:48;;;;;;;4.13;3.00;;;;;;;22.20;74.04;100904.97;5073215;28;20454;-69
2022/07/21 01:34:15;;;;;;;4.73;3.57;;;;;;;22.21;73.97;100909.31;5073472;28;20532;-68
2022/07/21 01:36:42;;;;;;;8.87;4.40;;;;;;;22.25;73.80;100910.16;5072471;28;20874;-68
2022/07/21 01:41:54;;;;;;;5.17;3.80;;;;;;;22.26;72.47;100906.25;5073042;28;20460;-68
2022/07/21 01:44:21;;;;;;;4.50;3.70;;;;;;;22.26;71.44;100902.69;5073431;28;20448;-68
2022/07/21 01:46:49;;;;;;;7.50;3.67;;;;;;;22.29;70.55;100894.47;5073675;28;20536;-68
2022/07/21 01:49:18;;;;;;;5.97;3.57;;;;;;;22.38;68.77;100889.44;5073365;28;20476;-69
2022/07/21 01:51:45;;;;;;;7.20;3.53;;;;;;;22.46;67.72;100881.28;5073182;28;20549;-69
2022/07/21 01:54:14;;;;;;;3.83;2.60;;;;;;;22.52;67.56;100883.31;5073333;28;20532;-68
2022/07/21 01:56:41;;;;;;;6.70;3.40;;;;;;;22.64;65.82;100890.56;5073308;28;20539;-68
2022/07/21 01:59:08;;;;;;;3.80;3.17;;;;;;;22.76;65.61;100892.31;5073093;28;20863;-68
2022/07/21 02:01:35;;;;;;;4.10;2.80;;;;;;;22.90;64.29;100886.97;5073179;28;20493;-68
2022/07/21 02:04:05;;;;;;;3.50;2.57;;;;;;;23.03;63.40;100890.28;5073265;28;20469;-68
2022/07/21 02:06:32;;;;;;;4.60;3.00;;;;;;;23.16;62.28;100888.84;5073201;28;20524;-68
2022/07/21 02:08:58;;;;;;;4.23;2.90;;;;;;;23.25;61.33;100888.53;5073185;28;20524;-68
2022/07/21 02:11:27;;;;;;;4.30;3.17;;;;;;;23.35;61.07;100885.06;5073089;28;20844;-68
2022/07/21 02:13:53;;;;;;;5.47;3.10;;;;;;;23.48;60.10;100888.34;5072796;28;20441;-68
2022/07/21 02:16:20;;;;;;;7.10;3.17;;;;;;;23.55;59.58;100885.63;5072797;28;20946;-68
2022/07/21 02:18:47;;;;;;;3.23;2.27;;;;;;;23.68;58.56;100892.47;5072664;28;21077;-68
2022/07/21 02:21:14;;;;;;;4.40;3.20;;;;;;;23.82;57.90;100881.53;5073143;28;20472;-68
2022/07/21 02:23:40;;;;;;;4.30;3.23;;;;;;;23.95;58.41;100895.88;5072982;28;20441;-68
2022/07/21 02:26:07;;;;;;;4.87;3.13;;;;;;;24.01;58.27;100886.03;5073269;28;20532;-68
2022/07/21 02:28:35;;;;;;;3.70;3.00;;;;;;;24.06;57.86;100888.41;5073066;28;20540;-68
2022/07/21 02:31:02;;;;;;;4.30;3.13;;;;;;;24.13;57.07;100884.91;5072631;28;21000;-68
2022/07/21 02:33:28;;;;;;;3.50;2.97;;;;;;;24.23;56.66;100888.91;5072935;28;20870;-68
2022/07/21 02:35:55;;;;;;;3.20;2.90;;;;;;;24.30;56.42;100886.97;5072568;28;20537;-68
2022/07/21 02:38:21;;;;;;;6.60;3.27;;;;;;;24.37;55.92;100886.25;5072848;28;20532;-69
2022/07/21 02:40:48;;;;;;;12.00;2.77;;;;;;;24.42;55.39;100883.13;5072384;28;20560;-68
2022/07/21 02:43:15;;;;;;;4.87;3.20;;;;;;;24.45;55.73;100890.66;5072754;28;20540;-69
2022/07/21 02:45:43;;;;;;;4.30;2.83;;;;;;;24.48;55.00;100872.44;5072856;28;20445;-68
2022/07/21 02:48:12;;;;;;;3.70;3.27;;;;;;;24.50;55.22;100868.13;5076321;28;20444;-68
2022/07/21 02:50:40;;;;;;;3.27;2.83;;;;;;;24.50;55.67;100870.09;5076361;28;20453;-68
2022/07/21 02:53:08;;;;;;;4.03;2.73;;;;;;;24.55;54.61;100872.50;5076138;28;20524;-68
2022/07/21 02:55:35;;;;;;;6.33;2.40;;;;;;;24.74;53.25;100863.84;5076420;28;20889;-68
2022/07/21 02:58:07;;;;;;;6.13;3.10;;;;;;;24.81;53.86;100860.31;5076364;28;20481;-68
2022/07/21 03:00:35;;;;;;;3.53;2.90;;;;;;;24.82;53.26;100859.91;5076204;28;20485;-67
2022/07/21 03:03:03;;;;;;;5.37;2.70;;;;;;;24.80;53.79;100862.28;5076553;28;20480;-68
2022/07/21 03:05:30;;;;;;;4.60;2.60;;;;;;;24.87;53.43;100864.28;5076314;28;20502;-69
2022/07/21 03:07:57;;;;;;;3.53;2.50;;;;;;;24.90;53.29;100860.72;5075833;28;20506;-69
2022/07/21 03:10:23;;;;;;;5.77;2.13;;;;;;;24.86;54.28;100869.03;5076119;28;20548;-69
2022/07/21 03:12:50;;;;;;;4.70;2.47;;;;;;;24.85;54.93;100864.69;5076004;28;20445;-69
2022/07/21 03:15:16;;;;;;;2.80;2.30;;;;;;;24.83;54.65;100889.19;5076041;28;20536;-69
2022/07/21 03:17:43;;;;;;;4.83;2.87;;;;;;;24.79;55.28;100893.16;5075701;28;20541;-69
2022/07/21 03:20:12;;;;;;;3.40;2.20;;;;;;;24.75;55.45;100887.63;5075858;28;20833;-68
2022/07/21 03:22:39;;;;;;;2.60;1.93;;;;;;;24.69;54.99;100889.16;5075850;28;20448;-69
2022/07/21 03:25:07;;;;;;;4.90;2.57;;;;;;;24.64;55.38;100897.84;5075880;28;20477;-69
2022/07/21 03:27:36;;;;;;;2.40;2.07;;;;;;;24.59;55.56;100901.00;5075490;28;20445;-68
2022/07/21 03:30:05;;;;;;;3.27;2.53;;;;;;;24.54;55.78;100907.72;5075349;28;20586;-68
2022/07/21 03:32:31;;;;;;;5.73;3.70;;;;;;;24.53;55.80;100905.34;5075759;28;20441;-68
2022/07/21 03:34:58;;;;;;;2.60;1.93;;;;;;;24.51;55.60;100902.16;5075347;28;20490;-68
2022/07/21 03:37:27;;;;;;;3.37;2.30;;;;;;;24.42;55.54;100908.81;5075372;28;20935;-68
2022/07/21 03:39:54;;;;;;;4.40;2.97;;;;;;;24.46;54.85;100906.06;5075370;28;20571;-69
2022/07/21 03:42:21;;;;;;;6.63;2.40;;;;;;;24.55;53.80;100911.28;5075934;28;20430;-69
2022/07/21 03:44:47;;;;;;;2.87;2.53;;;;;;;24.71;52.40;100906.19;5075532;28;20446;-68
2022/07/21 03:47:14;;;;;;;3.17;2.30;;;;;;;24.74;53.38;100908.19;5075264;28;20487;-69
2022/07/21 03:49:41;;;;;;;4.83;2.60;;;;;;;24.72;52.95;100907.00;5075058;28;20469;-69
2022/07/21 03:52:07;;;;;;;4.03;2.43;;;;;;;24.78;52.38;100906.22;5075121;28;20532;-69
2022/07/21 03:54:35;;;;;;;5.30;2.67;;;;;;;24.76;52.88;100896.72;5075425;28;20528;-69
2022/07/21 03:57:02;;;;;;;2.30;1.93;;;;;;;24.74;54.20;100894.31;5074949;28;20939;-68
2022/07/21 03:59:28;;;;;;;3.60;2.63;;;;;;;24.68;54.72;100901.44;5074553;28;20563;-68
2022/07/21 04:01:55;;;;;;;2.53;2.27;;;;;;;24.64;55.09;100904.19;5074863;28;20545;-68
2022/07/21 04:04:22;;;;;;;3.90;2.43;;;;;;;24.61;54.22;100913.28;5075130;28;20442;-68
2022/07/21 04:06:48;;;;;;;3.60;2.20;;;;;;;24.58;55.84;100918.81;5075137;28;20537;-68
2022/07/21 04:09:17;;;;;;;4.17;2.83;;;;;;;24.57;54.33;100919.97;5074784;28;21019;-67
2022/07/21 04:11:45;;;;;;;4.20;2.47;;;;;;;24.58;54.28;100932.66;5075034;28;20583;-68
2022/07/21 04:14:12;;;;;;;4.03;2.73;;;;;;;24.64;53.72;100931.09;5075011;28;20476;-69
2022/07/21 04:16:38;;;;;;;3.10;2.43;;;;;;;24.73;53.41;100939.84;5074749;28;20441;-68
2022/07/21 04:19:05;;;;;;;3.50;3.00;;;;;;;24.77;54.60;100932.34;5074748;28;20481;-69
2022/07/21 04:21:32;;;;;;;5.97;3.50;;;;;;;24.81;54.09;100935.13;5074402;28;20552;-68
2022/07/21 04:23:58;;;;;;;3.00;2.40;;;;;;;24.81;53.57;100949.00;5074572;28;20942;-69
2022/07/21 04:26:27;;;;;;;3.97;2.90;;;;;;;24.90;51.98;100943.88;5074795;28;20472;-68
2022/07/21 04:28:55;;;;;;;4.37;3.03;;;;;;;24.98;52.25;100956.59;5074916;28;20511;-68
2022/07/21 04:31:21;;;;;;;3.47;2.47;;;;;;;25.03;51.70;100970.06;5074425;28;20560;-68
2022/07/21 04:33:48;;;;;;;3.40;2.50;;;;;;;25.02;52.87;100981.56;5074120;28;20820;-68
2022/07/21 04:36:15;;;;;;;9.63;3.50;;;;;;;24.89;54.20;100970.00;5074748;28;20473;-69
2022/07/21 04:38:41;;;;;;;8.70;4.53;;;;;;;24.89;54.63;100979.13;5074512;28;20488;-69
2022/07/21 04:41:08;;;;;;;8.60;4.40;;;;;;;24.83;54.85;100990.94;5074121;28;20503;-68
2022/07/21 04:43:34;;;;;;;5.37;4.60;;;;;;;24.78;55.75;100988.56;5117411;22;20496;-73
2022/07/21 04:46:02;;;;;;;9.10;5.10;;;;;;;24.73;56.48;100998.03;5094523;28;20448;-74
2022/07/21 04:48:29;;;;;;;8.63;6.13;;;;;;;24.58;57.55;100994.41;5094286;28;21004;-73
2022/07/21 04:50:55;;;;;;;15.43;5.20;;;;;;;24.50;57.87;100984.44;5094354;28;20432;-73
2022/07/21 04:53:22;;;;;;;7.57;5.83;;;;;;;24.46;58.60;101000.25;5094342;28;20543;-73
2022/07/21 04:55:49;;;;;;;10.27;5.10;;;;;;;24.35;59.18;100989.09;5094360;28;20523;-73
2022/07/21 04:58:16;;;;;;;8.87;6.00;;;;;;;24.28;60.30;100991.78;5093984;28;20865;-73
2022/07/21 05:00:43;;;;;;;21.87;6.70;;;;;;;24.34;60.02;101004.09;5094209;28;20476;-72
2022/07/21 05:03:13;;;;;;;10.67;6.93;;;;;;;24.28;60.10;100997.31;5094118;28;20494;-73
2022/07/21 05:05:40;;;;;;;12.87;6.87;;;;;;;24.27;61.31;100997.72;5094966;28;20424;-73
2022/07/21 05:08:06;;;;;;;7.87;6.17;;;;;;;24.25;60.54;101014.69;5093824;28;20527;-72
2022/07/21 05:10:33;;;;;;;9.40;6.70;;;;;;;24.25;61.28;101020.22;5093085;28;20468;-73
2022/07/21 05:13:00;;;;;;;12.60;6.23;;;;;;;24.23;61.32;101030.13;5093925;28;20461;-73
2022/07/21 05:15:26;;;;;;;8.57;6.40;;;;;;;24.19;62.38;101026.53;5093971;28;20877;-73
2022/07/21 05:17:53;;;;;;;10.27;5.93;;;;;;;24.17;62.32;101037.97;5093972;28;20523;-73
2022/07/21 05:20:21;;;;;;;13.53;7.73;;;;;;;24.16;63.13;101045.47;5093501;28;20538;-72
2022/07/21 05:22:47;;;;;;;11.43;7.83;;;;;;;24.15;63.12;101046.66;5093780;28;20487;-72
2022/07/21 05:25:14;;;;;;;10.57;7.00;;;;;;;24.16;63.84;101045.47;5093463;28;20970;-73
2022/07/21 05:27:41;;;;;;;15.80;6.80;;;;;;;24.18;63.92;101050.66;5093523;28;20448;-73
2022/07/21 05:30:10;;;;;;;9.47;6.43;;;;;;;24.12;63.73;101049.38;5093746;28;20471;-73
2022/07/21 05:32:36;;;;;;;11.67;7.47;;;;;;;24.14;64.22;101050.63;5093672;28;20464;-73
2022/07/21 05:35:08;;;;;;;9.10;7.67;;;;;;;24.12;64.27;101061.25;5093438;28;20523;-73
2022/07/21 05:37:36;;;;;;;11.67;7.30;;;;;;;24.09;65.26;101066.78;5093366;28;20433;-73
2022/07/21 05:40:03;;;;;;;10.77;7.47;;;;;;;24.12;65.54;101066.00;5093466;28;20480;-73
2022/07/21 05:42:29;;;;;;;11.70;8.20;;;;;;;24.11;65.17;101064.41;5093040;28;21040;-73
2022/07/21 05:44:56;;;;;;;11.27;6.63;;;;;;;24.07;66.03;101069.91;5093394;28;20535;-73
2022/07/21 05:47:23;;;;;;;9.30;6.90;;;;;;;24.06;65.55;101073.06;5093402;28;20440;-73
2022/07/21 05:49:50;;;;;;;9.97;7.50;;;;;;;24.08;66.83;101070.72;5093371;28;20483;-70
2022/07/21 05:52:16;;;;;;;15.93;8.00;;;;;;;24.04;65.57;101089.25;5093063;28;20936;-71
2022/07/21 05:54:44;;;;;;;13.30;6.67;;;;;;;24.05;65.53;101082.56;5093338;28;20458;-74
2022/07/21 05:57:11;;;;;;;10.50;7.40;;;;;;;24.05;66.26;101088.09;5093005;28;20446;-71
2022/07/21 05:59:37;;;;;;;14.30;7.63;;;;;;;24.05;65.10;101094.44;5093312;28;20570;-71
2022/07/21 06:02:04;;;;;;;10.90;7.30;;;;;;;24.06;65.48;101098.78;5093219;28;20492;-71
2022/07/21 06:04:31;;;;;;;10.20;6.87;;;;;;;24.04;65.47;101097.56;5093242;28;20523;-71
2022/07/21 06:06:57;;;;;;;11.57;6.90;;;;;;;24.02;67.05;101099.91;5093259;28;20440;-71
2022/07/21 06:09:24;;;;;;;10.23;6.87;;;;;;;24.05;65.98;101099.16;5093252;28;20483;-71
2022/07/21 06:11:52;;;;;;;10.20;6.07;;;;;;;24.08;65.76;101101.97;5092814;28;21029;-71
2022/07/21 06:14:18;;;;;;;13.47;7.77;;;;;;;24.03;65.15;101085.69;5093035;28;20523;-71
2022/07/21 06:16:45;;;;;;;15.27;8.33;;;;;;;24.09;64.40;101075.88;5093188;28;20445;-70
2022/07/21 06:19:12;;;;;;;10.80;7.43;;;;;;;24.00;66.83;101085.69;5092890;28;20519;-71
2022/07/21 06:21:40;;;;;;;9.90;6.60;;;;;;;23.57;69.36;101083.22;5094139;28;20483;-71
2022/07/21 06:24:07;;;;;;;10.90;6.73;;;;;;;23.31;71.34;101089.59;5097264;28;20441;-70
2022/07/21 06:26:34;;;;;;;13.13;7.27;;;;;;;23.25;71.46;101101.38;5097210;28;20526;-71
2022/07/21 06:29:02;;;;;;;14.40;7.47;;;;;;;23.21;71.51;101101.34;5096841;28;20999;-71
2022/07/21 06:31:28;;;;;;;10.30;7.17;;;;;;;23.24;70.04;101099.75;5097051;28;20842;-71
2022/07/21 06:33:55;;;;;;;8.27;6.00;;;;;;;23.30;70.88;101096.31;5096963;28;20542;-71
2022/07/21 06:36:22;;;;;;;11.37;6.50;;;;;;;23.30;69.46;101101.84;5096957;28;20442;-71
2022/07/21 06:38:48;;;;;;;12.20;6.77;;;;;;;23.40;70.45;101095.63;5096963;28;20531;-71
2022/07/21 06:41:15;;;;;;;10.70;6.33;;;;;;;23.50;68.08;101105.25;5096894;28;20518;-70
2022/07/21 06:43:41;;;;;;;10.73;7.13;;;;;;;23.59;67.59;101111.28;5096513;28;20657;-70
2022/07/21 06:46:09;;;;;;;10.03;6.90;;;;;;;23.71;67.57;101113.03;5096832;28;20523;-71
2022/07/21 06:48:36;;;;;;;22.33;6.77;;;;;;;23.78;67.82;101117.88;5096808;28;20544;-72
2022/07/21 06:51:03;;;;;;;9.20;6.27;;;;;;;23.84;66.38;101106.06;5096665;28;20519;-71
2022/07/21 06:53:29;;;;;;;12.80;6.87;;;;;;;23.97;66.20;101120.44;5096827;28;20539;-71
2022/07/21 06:55:56;;;;;;;8.83;5.73;;;;;;;24.02;65.83;101133.13;5096298;28;21024;-71
2022/07/21 06:58:24;;;;;;;10.70;5.30;;;;;;;24.13;65.29;101125.75;5096314;28;20432;-71
2022/07/21 07:00:52;;;;;;;11.40;7.13;;;;;;;24.14;65.90;101127.34;5096181;28;20855;-71
2022/07/21 07:03:21;;;;;;;8.10;5.63;;;;;;;24.16;65.38;101119.44;5096688;28;20551;-71
2022/07/21 07:05:49;;;;;;;10.80;6.80;;;;;;;24.27;64.03;101125.09;5096504;28;20528;-72
2022/07/21 07:08:16;;;;;;;11.30;6.67;;;;;;;24.33;64.14;101127.13;5096703;28;20521;-72
2022/07/21 07:10:44;;;;;;;9.00;5.17;;;;;;;24.41;64.55;101139.88;5096608;28;20535;-71
2022/07/21 07:13:13;;;;;;;9.30;6.20;;;;;;;24.46;63.76;101132.41;5096128;28;20535;-71
2022/07/21 07:15:40;;;;;;;10.73;5.37;;;;;;;24.46;62.88;101126.88;5096349;28;20441;-73
2022/07/21 07:18:06;;;;;;;8.23;5.83;;;;;;;24.53;62.93;101113.09;5096505;28;20436;-73
2022/07/21 07:20:34;;;;;;;7.67;5.37;;;;;;;24.63;63.51;101117.91;5095837;28;21017;-72
2022/07/21 07:23:01;;;;;;;6.30;5.20;;;;;;;24.70;63.41;101137.34;5096022;28;20463;-72
2022/07/21 07:25:28;;;;;;;9.27;5.60;;;;;;;24.78;63.20;101150.06;5096149;28;20475;-73
2022/07/21 07:27:56;;;;;;;8.57;6.30;;;;;;;24.85;63.29;101147.38;5096120;28;20526;-73
2022/07/21 07:30:23;;;;;;;7.27;4.73;;;;;;;24.88;62.29;101151.31;5096378;28;20817;-72
2022/07/21 07:32:50;;;;;;;8.57;5.50;;;;;;;24.92;62.63;101160.47;5094875;28;20464;-72
2022/07/21 07:35:17;;;;;;;6.10;5.00;;;;;;;24.97;62.29;101148.22;5095870;28;20534;-72
2022/07/21 07:37:46;;;;;;;11.03;5.80;;;;;;;25.10;61.32;101163.38;5095630;28;20780;-73
2022/07/21 07:40:17;;;;;;;7.83;5.00;;;;;;;25.19;62.07;101163.88;5095807;28;20581;-73
2022/07/21 07:42:45;;;;;;;8.77;5.93;;;;;;;25.19;63.04;101160.28;5095534;28;20566;-73
2022/07/21 07:45:12;;;;;;;11.63;5.73;;;;;;;25.28;62.00;101169.88;5095749;28;20834;-73
2022/07/21 07:47:39;;;;;;;12.93;5.60;;;;;;;25.41;61.95;101170.31;5095411;28;21009;-73
2022/07/21 07:50:09;;;;;;;12.67;6.27;;;;;;;25.59;60.62;101176.75;5095583;28;20536;-72
2022/07/21 07:52:36;;;;;;;10.30;5.63;;;;;;;25.77;62.29;101171.31;5095829;28;20452;-73
2022/07/21 07:55:07;;;;;;;8.60;4.60;;;;;;;25.97;59.91;101173.75;5095542;28;20531;-73
2022/07/21 07:57:34;;;;;;;9.10;6.13;;;;;;;26.11;58.45;101182.91;5095563;28;20433;-73
2022/07/21 08:00:01;;;;;;;9.77;5.23;;;;;;;26.26;58.13;101185.75;5095347;28;20464;-72
2022/07/21 08:02:28;;;;;;;6.77;4.33;;;;;;;26.31;58.09;101182.56;5095341;28;20460;-71
2022/07/21 08:04:54;;;;;;;7.33;5.30;;;;;;;26.38;58.31;101186.13;5095306;28;20523;-72
2022/07/21 08:07:21;;;;;;;12.90;5.43;;;;;;;26.41;57.29;101193.69;5095325;28;20531;-69
2022/07/21 08:09:47;;;;;;;8.43;4.73;;;;;;;26.40;56.96;101194.09;5095294;28;20446;-71
2022/07/21 08:12:15;;;;;;;7.30;5.47;;;;;;;26.44;57.58;101196.91;5094727;28;20908;-73
2022/07/21 08:14:42;;;;;;;15.53;6.37;;;;;;;26.54;56.70;101198.91;5095174;28;20527;-72
2022/07/21 08:17:09;;;;;;;6.50;4.20;;;;;;;26.62;56.73;101197.72;5094804;28;20517;-73
2022/07/21 08:19:35;;;;;;;11.83;4.43;;;;;;;26.67;56.43;101188.97;5095040;28;20480;-72
2022/07/21 08:22:02;;;;;;;12.50;4.60;;;;;;;26.70;58.10;101190.97;5094559;28;20491;-73
2022/07/21 08:24:28;;;;;;;9.00;4.53;;;;;;;26.75;57.29;101193.34;5094714;28;20451;-72
2022/07/21 08:26:55;;;;;;;6.90;4.73;;;;;;;26.90;56.61;101203.25;5094641;28;20961;-72
2022/07/21 08:29:23;;;;;;;7.60;4.80;;;;;;;27.01;55.14;101206.06;5094588;28;20928;-72
2022/07/21 08:31:50;;;;;;;7.40;4.63;;;;;;;27.06;56.69;101213.19;5094472;28;20473;-72
2022/07/21 08:34:16;;;;;;;5.77;4.20;;;;;;;27.06;55.00;101208.44;5094799;28;20479;-72
2022/07/21 08:36:43;;;;;;;5.80;4.63;;;;;;;27.13;54.63;101216.00;5094744;28;20527;-72
2022/07/21 08:39:10;;;;;;;5.97;4.50;;;;;;;27.16;54.59;101216.00;5094706;28;20516;-72
2022/07/21 08:41:37;;;;;;;5.30;3.67;;;;;;;27.04;54.76;101219.16;5094459;28;20571;-71
2022/07/21 08:44:03;;;;;;;10.03;5.23;;;;;;;27.03;55.91;101203.66;5094378;28;20455;-72
2022/07/21 08:46:34;;;;;;;8.20;4.67;;;;;;;27.11;56.76;101210.84;5094593;28;20473;-72
2022/07/21 08:49:03;;;;;;;12.10;4.80;;;;;;;27.22;55.53;101199.69;5094506;28;20444;-72
2022/07/21 08:51:33;;;;;;;9.60;3.90;;;;;;;27.33;55.26;101189.34;5094133;28;20949;-73
2022/07/21 08:53:59;;;;;;;5.73;4.60;;;;;;;27.31;54.32;101197.28;5094329;28;20486;-71
2022/07/21 08:56:26;;;;;;;8.63;5.03;;;;;;;27.37;53.11;101214.38;5094162;28;20539;-67
2022/07/21 08:58:52;;;;;;;5.10;4.07;;;;;;;27.33;52.66;101211.59;5094299;28;20443;-70
2022/07/21 09:01:20;;;;;;;5.33;3.37;;;;;;;27.40;53.05;101217.16;5094187;28;20562;-71
2022/07/21 09:03:47;;;;;;;15.70;4.43;;;;;;;27.35;51.79;101209.19;5094037;28;20468;-70
2022/07/21 09:06:16;;;;;;;5.57;4.10;;;;;;;27.44;52.55;101206.00;5093787;28;20535;-69
2022/07/21 09:08:45;;;;;;;6.27;3.93;;;;;;;27.43;51.27;101204.41;5093749;28;20441;-71
2022/07/21 09:11:19;;;;;;;6.27;3.70;;;;;;;27.50;52.66;101207.19;5094033;28;20524;-71
2022/07/21 09:13:51;;;;;;;7.70;3.60;;;;;;;27.41;51.54;101192.91;5093677;28;20997;-72
2022/07/21 09:16:33;;;;;;;5.27;4.27;;;;;;;27.51;50.60;101192.06;5093678;28;20462;-71
2022/07/21 09:19:01;;;;;;;5.97;3.40;;;;;;;27.59;51.49;101201.19;5093622;28;20468;-71
2022/07/21 09:21:28;;;;;;;5.03;3.80;;;;;;;27.72;50.98;101201.56;5093811;28;20569;-72
2022/07/21 09:24:11;;;;;;;6.20;3.40;;;;;;;27.94;50.65;101196.72;5093665;28;20496;-72
2022/07/21 09:26:57;;;;;;;5.67;3.70;;;;;;;28.12;49.40;101206.56;5093846;28;20467;-72
2022/07/21 09:29:24;;;;;;;4.30;3.40;;;;;;;28.16;48.97;101195.41;5093841;28;20511;-71
2022/07/21 09:31:51;;;;;;;6.10;3.60;;;;;;;28.31;49.18;101196.88;5093649;28;20433;-72
2022/07/21 09:34:20;;;;;;;4.90;3.20;;;;;;;28.33;48.39;101194.50;5093408;28;20441;-72
2022/07/21 09:36:55;;;;;;;4.53;2.97;;;;;;;28.32;49.20;101190.09;5093937;28;20531;-72
2022/07/21 09:39:41;;;;;;;4.23;3.83;;;;;;;28.43;48.71;101200.44;5093688;28;20444;-72
2022/07/21 09:42:19;;;;;;;3.93;3.33;;;;;;;28.49;49.18;101198.78;5093292;28;20492;-72
2022/07/21 09:44:48;;;;;;;4.73;3.60;;;;;;;28.77;48.57;101209.72;5093818;28;20532;-72
2022/07/21 09:47:16;;;;;;;4.07;2.87;;;;;;;29.04;46.90;101211.91;5093178;28;20970;-72
2022/07/21 09:49:44;;;;;;;4.83;3.00;;;;;;;29.22;47.09;101215.31;5093146;28;20536;-72
2022/07/21 09:52:22;;;;;;;4.13;3.03;;;;;;;29.31;47.18;101218.44;5093316;28;20488;-72
2022/07/21 09:54:49;;;;;;;3.60;2.60;;;;;;;29.39;47.10;101214.31;5093351;28;20490;-72
2022/07/21 09:57:17;;;;;;;5.03;2.80;;;;;;;29.38;45.24;101217.53;5092570;28;20519;-72
2022/07/21 09:59:45;;;;;;;3.00;2.50;;;;;;;29.40;45.88;101227.09;5093367;28;20519;-72
2022/07/21 10:02:17;;;;;;;5.50;2.83;;;;;;;29.43;45.57;101233.84;5092793;28;21100;-72
2022/07/21 10:04:47;;;;;;;3.13;2.83;;;;;;;29.46;44.87;101229.44;5093316;28;20443;-72
2022/07/21 10:07:14;;;;;;;2.73;2.23;;;;;;;29.41;44.97;101231.47;5093282;28;20853;-72
2022/07/21 10:09:41;;;;;;;3.97;2.60;;;;;;;29.34;45.56;101241.91;5093168;28;20975;-72
2022/07/21 10:12:08;;;;;;;3.23;2.60;;;;;;;29.27;46.01;101242.78;5093130;28;20484;-72
2022/07/21 10:14:36;;;;;;;3.90;2.57;;;;;;;29.10;45.54;101252.13;5093279;28;20527;-72
2022/07/21 10:17:04;;;;;;;4.60;2.77;;;;;;;28.98;46.48;101245.03;5093230;28;20523;-72
2022/07/21 10:19:35;;;;;;;5.07;2.77;;;;;;;28.92;46.30;101250.25;5092886;28;21007;-72
2022/07/21 10:22:11;;;;;;;5.13;2.50;;;;;;;28.85;47.56;101247.50;5093075;28;20919;-72
2022/07/21 10:24:38;;;;;;;4.13;2.47;;;;;;;28.74;47.24;101251.59;5093396;28;20427;-72
2022/07/21 10:27:06;;;;;;;6.10;2.50;;;;;;;28.53;47.12;101249.72;5092796;28;20475;-71
2022/07/21 10:29:58;;;;;;;5.10;2.40;;;;;;;28.34;47.46;101260.16;5093097;28;20877;-72
2022/07/21 10:32:27;;;;;;;3.23;2.40;;;;;;;28.24;47.99;101258.22;5092701;28;21062;-72
2022/07/21 10:34:55;;;;;;;2.53;2.33;;;;;;;28.17;48.09;101263.84;5093232;28;20448;-72
2022/07/21 10:37:51;;;;;;;4.43;2.40;;;;;;;28.13;47.96;101274.22;5092986;28;20472;-72
2022/07/21 10:40:37;;;;;;;2.30;1.53;;;;;;;27.94;48.37;101281.06;5092731;28;20505;-71
2022/07/21 10:43:39;;;;;;;2.37;2.03;;;;;;;27.94;48.97;101272.69;5092407;28;20579;-72
2022/07/21 10:46:36;;;;;;;2.33;1.97;;;;;;;28.06;48.34;101269.44;5093109;28;20432;-72
2022/07/21 10:49:05;;;;;;;2.70;1.80;;;;;;;28.06;49.64;101263.88;5092644;28;20925;-72
2022/07/21 10:51:33;;;;;;;7.73;2.97;;;;;;;27.96;49.11;101266.72;5092625;28;20440;-72
2022/07/21 10:54:22;;;;;;;4.00;2.40;;;;;;;28.03;50.24;101277.84;5092844;28;20495;-72
2022/07/21 10:56:49;;;;;;;4.50;2.80;;;;;;;28.15;49.27;101269.00;5093128;28;20433;-72
2022/07/21 10:59:15;;;;;;;3.73;2.57;;;;;;;28.31;49.48;101263.75;5092527;28;20970;-71
2022/07/21 11:01:42;;;;;;;3.23;2.03;;;;;;;28.25;49.40;101275.75;5092727;28;20567;-72
2022/07/21 11:04:12;;;;;;;2.90;1.87;;;;;;;28.28;49.74;101281.28;5092794;28;20440;-72
2022/07/21 11:06:40;;;;;;;3.47;2.40;;;;;;;28.34;50.56;101271.31;5092739;28;20523;-72
2022/07/21 11:09:10;;;;;;;3.20;2.20;;;;;;;28.47;49.91;101273.69;5095868;28;20938;-72
2022/07/21 11:11:40;;;;;;;3.63;2.03;;;;;;;28.69;49.39;101274.31;5095999;28;20981;-72
2022/07/21 11:14:09;;;;;;;3.73;3.30;;;;;;;28.90;49.18;101263.78;5096058;28;20523;-72
2022/07/21 11:17:02;;;;;;;4.93;2.70;;;;;;;29.02;48.06;101259.75;5096382;28;20832;-72
2022/07/21 11:19:31;;;;;;;5.90;2.43;;;;;;;29.12;48.96;101241.31;5096388;28;20429;-71
2022/07/21 11:22:01;;;;;;;3.50;2.80;;;;;;;29.08;49.16;101243.34;5096046;28;20566;-72
2022/07/21 11:24:28;;;;;;;6.67;3.10;;;;;;;29.10;47.41;101260.50;5095740;28;20477;-71
2022/07/21 11:26:58;;;;;;;2.43;2.07;;;;;;;29.07;46.60;101269.66;5096025;28;20483;-72
2022/07/21 11:29:25;;;;;;;3.67;2.13;;;;;;;29.03;46.67;101275.28;5096114;28;20520;-73
2022/07/21 11:31:52;;;;;;;3.70;2.60;;;;;;;29.15;46.02;101260.03;5095624;28;20534;-74